createdAt,value
2022-08-25T00:02:16.518Z,101144.91
2022-08-25T00:05:22.317Z,101143.19
2022-08-25T00:08:24.869Z,101148.03
2022-08-25T00:11:30.020Z,101149.53
2022-08-25T00:14:35.867Z,101141.16
2022-08-25T00:17:39.489Z,101137.72
2022-08-25T00:20:43.347Z,101144.56
2022-08-25T00:23:51.660Z,101141.78
2022-08-25T00:26:56.728Z,101145.81
2022-08-25T00:30:00.234Z,101150.91
2022-08-25T00:33:03.902Z,101145.78
2022-08-25T00:36:08.101Z,101146.19
2022-08-25T00:39:12.069Z,101136.22
2022-08-25T00:42:15.982Z,101139.41
2022-08-25T00:45:19.303Z,101150.28
2022-08-25T00:48:21.817Z,101153.81
2022-08-25T00:51:31.609Z,101147.00
2022-08-25T00:54:39.028Z,101145.06
2022-08-25T00:57:44.695Z,101141.19
2022-08-25T01:00:50.067Z,101135.84
2022-08-25T01:03:52.594Z,101142.34
2022-08-25T01:06:58.368Z,101142.72
2022-08-25T01:10:01.950Z,101143.06
2022-08-25T01:13:16.492Z,101143.66
2022-08-25T01:16:19.629Z,101142.22
2022-08-25T01:19:22.770Z,101134.91
2022-08-25T01:22:27.159Z,101136.38
2022-08-25T01:25:40.193Z,101139.91
2022-08-25T01:28:59.162Z,101139.91
2022-08-25T01:32:04.569Z,101143.25
2022-08-25T01:35:07.950Z,101139.78
2022-08-25T01:38:12.988Z,101137.78
2022-08-25T01:41:18.732Z,101133.88
2022-08-25T01:44:21.600Z,101145.56
2022-08-25T01:47:24.349Z,101148.47
2022-08-25T01:50:26.937Z,101153.97
2022-08-25T01:53:33.591Z,101151.53
2022-08-25T01:56:36.633Z,101161.03
2022-08-25T01:59:39.342Z,101159.06
2022-08-25T02:02:44.030Z,101162.38
2022-08-25T02:05:48.671Z,101159.44
2022-08-25T02:08:53.859Z,101174.53
2022-08-25T02:11:56.915Z,101169.44
2022-08-25T02:14:59.514Z,101168.09
2022-08-25T02:18:02.468Z,101170.16
2022-08-25T02:21:05.115Z,101181.13
2022-08-25T02:24:09.808Z,101184.31
2022-08-25T02:27:12.399Z,101182.97
2022-08-25T02:30:16.718Z,101174.69
2022-08-25T02:33:19.506Z,101174.84
2022-08-25T02:36:22.451Z,101187.25
2022-08-25T02:39:26.307Z,101185.78
2022-08-25T02:42:29.776Z,101175.81
2022-08-25T02:45:32.922Z,101189.78
2022-08-25T02:48:35.777Z,101187.59
2022-08-25T02:51:38.289Z,101192.75
2022-08-25T02:54:42.440Z,101182.97
2022-08-25T02:57:45.024Z,101196.00
2022-08-25T03:00:48.379Z,101203.94
2022-08-25T03:03:52.085Z,101198.69
2022-08-25T03:06:54.626Z,101212.22
2022-08-25T03:09:58.435Z,101215.63
2022-08-25T03:13:00.913Z,101217.25
2022-08-25T03:16:06.128Z,101224.47
2022-08-25T03:19:13.941Z,101223.19
2022-08-25T03:22:16.393Z,101213.31
2022-08-25T03:25:38.324Z,101221.50
2022-08-25T03:28:41.645Z,101236.84
2022-08-25T03:31:44.719Z,101236.72
2022-08-25T03:34:47.360Z,101244.41
2022-08-25T03:37:51.117Z,101250.13
2022-08-25T03:40:55.285Z,101249.38
2022-08-25T03:43:58.270Z,101256.91
2022-08-25T03:47:00.730Z,101264.84
2022-08-25T03:50:03.664Z,101262.53
2022-08-25T03:53:06.133Z,101267.56
2022-08-25T03:56:09.918Z,101274.41
2022-08-25T03:59:13.237Z,101269.97
2022-08-25T04:02:15.962Z,101284.81
2022-08-25T04:05:20.192Z,101303.84
2022-08-25T04:08:22.759Z,101315.66
2022-08-25T04:11:28.548Z,101314.94
2022-08-25T04:14:31.231Z,101311.28
2022-08-25T04:17:34.012Z,101311.78
2022-08-25T04:20:36.465Z,101320.41
2022-08-25T04:23:40.613Z,101309.69
2022-08-25T04:26:47.257Z,101328.56
2022-08-25T04:29:49.721Z,101320.88
2022-08-25T04:32:52.165Z,101324.75
2022-08-25T04:35:55.140Z,101337.31
2022-08-25T04:38:57.819Z,101346.38
2022-08-25T04:42:02.256Z,101340.75
2022-08-25T04:45:05.756Z,101351.47
2022-08-25T04:48:09.923Z,101350.88
2022-08-25T04:51:14.624Z,101345.72
2022-08-25T04:54:21.614Z,101355.50
2022-08-25T04:57:25.542Z,101368.53
2022-08-25T05:00:28.077Z,101366.88
2022-08-25T05:03:31.105Z,101363.38
2022-08-25T05:06:33.900Z,101340.72
2022-08-25T05:09:37.674Z,101356.41
2022-08-25T05:12:41.458Z,101354.25
2022-08-25T05:15:53.172Z,101351.91
2022-08-25T05:18:56.540Z,101364.25
2022-08-25T05:21:59.095Z,101382.88
2022-08-25T05:25:01.558Z,101379.34
2022-08-25T05:28:05.943Z,101384.59
2022-08-25T05:31:09.859Z,101382.84
2022-08-25T05:34:12.905Z,101383.00
2022-08-25T05:37:15.358Z,101398.06
2022-08-25T05:40:17.915Z,101405.63
2022-08-25T05:43:21.753Z,101414.72
2022-08-25T05:46:24.980Z,101412.31
2022-08-25T05:49:27.850Z,101408.91
2022-08-25T05:52:30.337Z,101425.66
2022-08-25T05:55:32.820Z,101429.41
2022-08-25T05:58:37.565Z,101437.53
2022-08-25T06:01:57.700Z,101432.50
2022-08-25T06:05:00.167Z,101431.84
2022-08-25T06:08:02.749Z,101429.50
2022-08-25T06:11:05.308Z,101422.56
2022-08-25T06:14:10.841Z,101426.38
2022-08-25T06:17:13.325Z,101423.03
2022-08-25T06:20:18.814Z,101435.28
2022-08-25T06:23:24.650Z,101420.38
2022-08-25T06:26:27.231Z,101432.56
2022-08-25T06:29:31.038Z,101431.25
2022-08-25T06:32:34.171Z,101430.03
2022-08-25T06:35:37.213Z,101422.84
2022-08-25T06:38:39.703Z,101431.84
2022-08-25T06:41:42.198Z,101425.91
2022-08-25T06:44:46.074Z,101417.72
2022-08-25T06:47:48.872Z,101417.97
2022-08-25T06:50:51.388Z,101402.97
2022-08-25T06:53:54.491Z,101397.75
2022-08-25T06:56:56.952Z,101390.41
2022-08-25T07:00:02.053Z,101387.59
2022-08-25T07:03:04.987Z,101382.59
2022-08-25T07:06:09.817Z,101387.25
2022-08-25T07:09:13.023Z,101387.25
2022-08-25T07:12:15.498Z,101390.28
2022-08-25T07:15:20.697Z,101388.22
2022-08-25T07:18:23.538Z,101386.44
2022-08-25T07:21:31.248Z,101384.47
2022-08-25T07:24:35.867Z,101375.81
2022-08-25T07:27:39.099Z,101378.72
2022-08-25T07:30:45.162Z,101374.16
2022-08-25T07:34:11.922Z,101381.63
2022-08-25T07:37:32.255Z,101368.00
2022-08-25T07:40:43.065Z,101372.66
2022-08-25T07:43:45.780Z,101367.34
2022-08-25T07:46:50.548Z,101366.00
2022-08-25T07:49:53.185Z,101369.16
2022-08-25T07:52:57.293Z,101368.78
2022-08-25T07:56:00.060Z,101364.22
2022-08-25T07:59:02.607Z,101361.13
2022-08-25T08:02:09.337Z,101370.69
2022-08-25T08:05:21.662Z,101363.47
2022-08-25T08:08:26.328Z,101376.41
2022-08-25T08:11:30.979Z,101377.38
2022-08-25T08:14:33.517Z,101368.19
2022-08-25T08:20:45.001Z,101363.28
2022-08-25T08:23:48.472Z,101356.19
2022-08-25T08:26:58.652Z,101354.94
2022-08-25T08:30:01.687Z,101358.41
2022-08-25T08:33:10.129Z,101364.69
2022-08-25T08:36:14.263Z,101349.06
2022-08-25T08:39:17.794Z,101344.91
2022-08-25T08:42:42.896Z,101352.31
2022-08-25T08:45:53.122Z,101348.16
2022-08-25T08:49:02.750Z,101340.53
2022-08-25T08:52:09.173Z,101343.78
2022-08-25T08:55:24.346Z,101339.63
2022-08-25T08:58:31.338Z,101336.81
2022-08-25T09:01:45.724Z,101335.81
2022-08-25T09:04:56.483Z,101324.84
2022-08-25T09:08:06.259Z,101328.16
2022-08-25T09:11:21.150Z,101332.34
2022-08-25T09:14:39.835Z,101272.28
2022-08-25T09:17:57.901Z,101270.84
2022-08-25T09:21:09.551Z,101272.88
2022-08-25T09:24:26.144Z,101265.16
2022-08-25T09:27:39.223Z,101270.28
2022-08-25T09:30:52.815Z,101270.13
2022-08-25T09:33:58.728Z,101267.56
2022-08-25T09:37:03.692Z,101270.34
2022-08-25T09:40:09.353Z,101279.25
2022-08-25T09:43:21.553Z,101265.41
2022-08-25T09:46:26.924Z,101273.72
2022-08-25T09:49:37.559Z,101263.38
2022-08-25T09:52:44.414Z,101271.28
2022-08-25T09:55:59.843Z,101258.94
2022-08-25T09:59:21.765Z,101270.22
2022-08-25T10:02:37.556Z,101270.25
2022-08-25T10:05:59.721Z,101257.53
2022-08-25T10:09:06.816Z,101242.09
2022-08-25T10:12:21.151Z,101236.91
2022-08-25T10:15:30.457Z,101246.97
2022-08-25T10:18:33.316Z,101242.25
2022-08-25T10:21:37.113Z,101239.72
2022-08-25T10:24:44.239Z,101239.53
2022-08-25T10:27:54.667Z,101236.03
2022-08-25T10:31:03.835Z,101236.44
2022-08-25T10:34:22.491Z,101235.16
2022-08-25T10:37:34.462Z,101228.00
2022-08-25T10:40:46.985Z,101223.22
2022-08-25T10:43:58.908Z,101234.88
2022-08-25T10:47:20.234Z,101235.63
2022-08-25T10:50:34.489Z,101230.56
2022-08-25T10:53:49.213Z,101233.97
2022-08-25T10:57:04.269Z,101224.63
2022-08-25T11:00:15.559Z,101217.31
2022-08-25T11:03:44.526Z,101202.25
2022-08-25T11:06:54.652Z,101198.97
2022-08-25T11:10:03.529Z,101183.81
2022-08-25T11:13:14.075Z,101189.53
2022-08-25T11:16:21.286Z,101193.69
2022-08-25T11:19:31.236Z,101188.31
2022-08-25T11:22:43.842Z,101189.81
2022-08-25T11:25:51.825Z,101191.34
2022-08-25T11:29:02.586Z,101200.59
2022-08-25T11:32:05.770Z,101207.03
2022-08-25T11:35:12.280Z,101191.91
2022-08-25T11:38:30.123Z,101186.13
2022-08-25T11:41:40.246Z,101186.59
2022-08-25T11:44:59.345Z,101182.91
2022-08-25T11:48:18.889Z,101176.16
2022-08-25T11:51:33.842Z,101171.06
2022-08-25T11:54:44.181Z,101156.34
2022-08-25T11:57:53.455Z,101164.66
2022-08-25T12:00:59.582Z,101150.31
2022-08-25T12:04:14.942Z,101155.84
2022-08-25T12:07:29.471Z,101162.38
2022-08-25T12:10:55.224Z,101161.31
2022-08-25T12:14:15.045Z,101159.94
2022-08-25T12:17:28.345Z,101132.88
2022-08-25T12:21:10.405Z,101122.41
2022-08-25T12:24:17.904Z,101124.78
2022-08-25T12:27:26.981Z,101111.03
2022-08-25T12:30:40.924Z,101111.47
2022-08-25T12:33:56.908Z,101107.97
2022-08-25T12:37:06.312Z,101111.34
2022-08-25T12:40:24.724Z,101099.31
2022-08-25T12:43:33.321Z,101091.09
2022-08-25T12:46:40.469Z,101090.16
2022-08-25T12:49:44.257Z,101099.69
2022-08-25T12:52:46.942Z,101103.75
2022-08-25T12:55:53.668Z,101098.22
2022-08-25T12:59:12.258Z,101088.72
2022-08-25T13:02:39.804Z,101074.50
2022-08-25T13:06:12.912Z,101079.28
2022-08-25T13:10:00.111Z,101074.47
2022-08-25T13:13:07.876Z,101071.47
2022-08-25T13:16:17.750Z,101057.56
2022-08-25T13:19:21.265Z,101050.41
2022-08-25T13:22:27.349Z,101052.69
2022-08-25T13:25:34.588Z,101038.66
2022-08-25T13:28:42.110Z,101034.19
2022-08-25T13:31:57.457Z,101031.63
2022-08-25T13:35:11.738Z,101009.28
2022-08-25T13:38:20.154Z,101025.78
2022-08-25T13:41:28.662Z,101027.25
2022-08-25T13:44:35.979Z,101017.44
2022-08-25T13:47:45.212Z,101005.91
2022-08-25T13:50:52.070Z,101003.34
2022-08-25T13:54:00.171Z,101002.25
2022-08-25T13:57:18.641Z,100994.28
2022-08-25T14:00:32.452Z,100983.50
2022-08-25T14:03:37.346Z,100984.75
2022-08-25T14:06:39.901Z,100990.16
2022-08-25T14:09:49.155Z,100986.13
2022-08-25T14:13:09.044Z,100988.56
2022-08-25T14:16:15.596Z,101001.03
2022-08-25T14:19:24.121Z,100997.47
2022-08-25T14:22:27.532Z,100980.22
2022-08-25T14:25:31.895Z,100974.22
2022-08-25T14:28:34.648Z,100954.25
2022-08-25T14:31:43.131Z,100955.72
2022-08-25T14:34:46.670Z,100954.31
2022-08-25T14:37:49.989Z,100948.75
2022-08-25T14:40:54.108Z,100954.38
2022-08-25T14:43:56.802Z,100948.13
2022-08-25T14:47:01.948Z,100944.63
2022-08-25T14:50:04.970Z,100939.63
2022-08-25T14:53:10.186Z,100932.91
2022-08-25T14:56:14.375Z,100934.47
2022-08-25T14:59:16.958Z,100939.53
2022-08-25T15:02:23.006Z,100936.28
2022-08-25T15:05:33.072Z,100938.75
2022-08-25T15:08:53.096Z,100937.66
2022-08-25T15:11:57.954Z,100924.59
2022-08-25T15:15:01.536Z,100923.47
2022-08-25T15:18:04.871Z,100911.13
2022-08-25T15:21:08.741Z,100902.53
2022-08-25T15:24:12.679Z,100906.19
2022-08-25T15:27:22.579Z,100906.00
2022-08-25T15:30:30.930Z,100901.47
2022-08-25T15:33:33.734Z,100892.94
2022-08-25T15:36:37.152Z,100894.59
2022-08-25T15:39:43.155Z,100895.56
2022-08-25T15:42:48.470Z,100895.78
2022-08-25T15:45:51.527Z,100897.19
2022-08-25T15:52:02.224Z,100877.81
2022-08-25T15:55:05.636Z,100876.75
2022-08-25T15:58:10.320Z,100869.44
2022-08-25T16:01:14.386Z,100860.81
2022-08-25T16:04:16.853Z,100855.75
2022-08-25T16:07:21.225Z,100856.03
2022-08-25T16:10:25.129Z,100848.22
2022-08-25T16:13:29.131Z,100837.72
2022-08-25T16:16:32.989Z,100835.66
2022-08-25T16:19:38.101Z,100833.13
2022-08-25T16:22:40.796Z,100838.75
2022-08-25T16:25:46.354Z,100829.97
2022-08-25T16:28:50.634Z,100824.25
2022-08-25T16:31:55.042Z,100832.41
2022-08-25T16:34:58.781Z,100831.84
2022-08-25T16:38:03.770Z,100825.59
2022-08-25T16:41:08.794Z,100814.94
2022-08-25T16:44:12.815Z,100810.91
2022-08-25T16:47:17.829Z,100814.72
2022-08-25T16:50:23.061Z,100806.59
2022-08-25T16:53:43.582Z,100815.72
2022-08-25T16:56:47.453Z,100816.09
2022-08-25T16:59:59.944Z,100812.28
2022-08-25T17:03:05.645Z,100806.72
2022-08-25T17:06:08.736Z,100802.63
2022-08-25T17:09:13.206Z,100799.91
2022-08-25T17:12:15.851Z,100800.63
2022-08-25T17:15:23.783Z,100796.56
2022-08-25T17:18:26.245Z,100793.25
2022-08-25T17:21:33.399Z,100794.09
2022-08-25T17:24:36.400Z,100783.13
2022-08-25T17:27:42.949Z,100787.03
2022-08-25T17:30:46.905Z,100787.38
2022-08-25T17:33:49.456Z,100776.81
2022-08-25T17:36:53.191Z,100786.72
2022-08-25T17:40:02.720Z,100781.84
2022-08-25T17:43:05.877Z,100779.31
2022-08-25T17:46:13.607Z,100778.00
2022-08-25T17:49:17.264Z,100771.94
2022-08-25T17:52:23.572Z,100772.97
2022-08-25T17:55:28.468Z,100765.66
2022-08-25T17:58:31.778Z,100773.78
2022-08-25T18:01:40.289Z,100767.66
2022-08-25T18:04:43.570Z,100771.88
2022-08-25T18:07:46.017Z,100772.00
2022-08-25T18:10:48.907Z,100776.22
2022-08-25T18:13:52.346Z,100778.16
2022-08-25T18:16:56.954Z,100785.53
2022-08-25T18:19:59.437Z,100788.41
2022-08-25T18:23:01.997Z,100779.38
2022-08-25T18:26:06.694Z,100774.50
2022-08-25T18:29:12.131Z,100778.50
2022-08-25T18:32:16.436Z,100781.91
2022-08-25T18:35:22.423Z,100776.81
2022-08-25T18:38:46.465Z,100778.06
2022-08-25T18:41:48.970Z,100784.19
2022-08-25T18:44:51.429Z,100777.44
2022-08-25T18:47:57.467Z,100789.16
2022-08-25T18:51:01.703Z,100790.22
2022-08-25T18:54:04.850Z,100789.06
2022-08-25T18:57:08.834Z,100790.00
2022-08-25T19:00:15.842Z,100792.25
2022-08-25T19:03:23.272Z,100790.06
2022-08-25T19:06:25.800Z,100792.13
2022-08-25T19:09:28.478Z,100792.69
2022-08-25T19:12:31.166Z,100784.66
2022-08-25T19:15:40.883Z,100791.41
2022-08-25T19:18:45.173Z,100794.97
2022-08-25T19:21:48.362Z,100793.88
2022-08-25T19:24:53.340Z,100797.16
2022-08-25T19:27:58.453Z,100793.22
2022-08-25T19:31:04.178Z,100790.84
2022-08-25T19:34:10.912Z,100788.56
2022-08-25T19:37:15.583Z,100789.13
2022-08-25T19:40:21.624Z,100787.03
2022-08-25T19:43:24.312Z,100786.72
2022-08-25T19:46:33.030Z,100786.66
2022-08-25T19:49:39.004Z,100789.28
2022-08-25T19:52:44.600Z,100787.19
2022-08-25T19:55:47.354Z,100792.16
2022-08-25T19:58:50.001Z,100793.00
2022-08-25T20:01:53.003Z,100792.06
2022-08-25T20:04:59.302Z,100799.84
2022-08-25T20:08:03.052Z,100804.22
2022-08-25T20:11:05.594Z,100796.75
2022-08-25T20:14:08.630Z,100790.63
2022-08-25T20:17:14.436Z,100796.84
2022-08-25T20:20:32.505Z,100803.66
2022-08-25T20:23:54.756Z,100807.59
2022-08-25T20:26:57.294Z,100792.91
2022-08-25T20:29:59.820Z,100792.53
2022-08-25T20:33:06.336Z,100806.66
2022-08-25T20:36:15.142Z,100807.09
2022-08-25T20:39:17.890Z,100804.09
2022-08-25T20:42:20.809Z,100806.50
2022-08-25T20:45:24.122Z,100804.50
2022-08-25T20:48:27.511Z,100800.72
2022-08-25T20:51:31.298Z,100805.38
2022-08-25T20:54:34.555Z,100799.72
2022-08-25T20:57:37.682Z,100805.38
2022-08-25T21:00:42.209Z,100809.75
2022-08-25T21:03:45.047Z,100803.53
2022-08-25T21:06:49.580Z,100797.44
2022-08-25T21:09:52.319Z,100801.53
2022-08-25T21:12:55.260Z,100805.06
2022-08-25T21:15:57.741Z,100798.28
2022-08-25T21:19:00.388Z,100786.84
2022-08-25T21:22:05.530Z,100787.84
2022-08-25T21:25:09.638Z,100794.47
2022-08-25T21:28:12.481Z,100793.88
2022-08-25T21:31:19.101Z,100790.50
2022-08-25T21:34:22.203Z,100784.72
2022-08-25T21:37:27.302Z,100780.88
2022-08-25T21:40:29.804Z,100784.72
2022-08-25T21:43:32.318Z,100782.72
2022-08-25T21:46:36.910Z,100778.75
2022-08-25T21:49:39.434Z,100777.47
2022-08-25T21:52:43.244Z,100781.00
2022-08-25T21:55:45.701Z,100785.53
2022-08-25T21:58:49.181Z,100773.53
2022-08-25T22:01:52.938Z,100781.31
2022-08-25T22:04:55.414Z,100778.50
2022-08-25T22:07:59.785Z,100769.03
2022-08-25T22:11:05.163Z,100767.75
2022-08-25T22:14:07.925Z,100767.47
2022-08-25T22:17:14.025Z,100754.88
2022-08-25T22:20:19.606Z,100765.19
2022-08-25T22:23:28.422Z,100759.34
2022-08-25T22:26:33.405Z,100759.75
2022-08-25T22:29:35.965Z,100756.53
2022-08-25T22:32:38.424Z,100752.22
2022-08-25T22:35:41.578Z,100754.34
2022-08-25T22:38:45.580Z,100753.97
2022-08-25T22:41:48.054Z,100746.16
2022-08-25T22:44:50.528Z,100741.78
2022-08-25T22:47:53.096Z,100743.06
2022-08-25T22:50:55.549Z,100735.31
2022-08-25T22:54:02.035Z,100742.66
2022-08-25T22:57:07.158Z,100740.22
2022-08-25T23:00:14.089Z,100739.66
2022-08-25T23:03:16.801Z,100743.84
2022-08-25T23:06:24.717Z,100740.59
2022-08-25T23:09:28.924Z,100727.44
2022-08-25T23:12:33.448Z,100733.66
2022-08-25T23:15:35.908Z,100737.44
2022-08-25T23:18:43.574Z,100738.63
2022-08-25T23:22:04.795Z,100729.13
2022-08-25T23:25:10.139Z,100724.16
2022-08-25T23:28:12.647Z,100714.44
2022-08-25T23:31:15.625Z,100716.84
2022-08-25T23:34:18.114Z,100715.97
2022-08-25T23:37:20.579Z,100710.09
2022-08-25T23:40:24.857Z,100705.69
2022-08-25T23:43:27.472Z,100703.25
2022-08-25T23:46:30.014Z,100704.09
2022-08-25T23:49:32.631Z,100708.38
2022-08-25T23:52:36.192Z,100707.38
2022-08-25T23:55:52.815Z,100702.16
2022-08-25T23:58:55.718Z,100698.88
